Buoy 41560

sailwx.info

Track history (hours):
 
Tides and Currents Weather Stations Pressure Air Temp Water Temp Dewpoint Dewpoint Depression Visibility Wind Speed Wind Dir Waves Ship Positions

Drifting buoy 41560

Last reported at 2015-Mar-29 05:00 UTC. Time now 2015-Mar-29 06:14 UTC.
Position N 30°36' W 025°13'.

Barometer 1028.6 mb

Date/timePositionNaut miles runAvg speedWind from/ knotsBaromVisibWave heightAir tempDewpointWater temp
2015-Mar-29 05:00N 30°36' W 025°13'1 1.5 1028.6
2015-Mar-29 04:00N 30°35' W 025°12'1 0.6 1029.3
2015-Mar-29 02:00N 30°37' W 025°12'1 0.3 1030.8
2015-Mar-28 23:00N 30°37' W 025°11'0 0.3 1031.3
2015-Mar-28 22:00N 30°37' W 025°11'1 0.4 1031.3
2015-Mar-28 19:00N 30°36' W 025°10'0 0.2 1030.3
2015-Mar-28 17:00N 30°36' W 025°10'1 1.3 1029.8
2015-Mar-28 16:00N 30°36' W 025°08'0 0.2 1029.8
2015-Mar-28 14:00N 30°36' W 025°07'1 0.9 1030.7
2015-Mar-28 13:00N 30°36' W 025°06'1 1.0 1031.0
2015-Mar-28 12:00N 30°35' W 025°05'0 0.2 1031.3
2015-Mar-28 10:00N 30°36' W 025°05'2 1.2 1031.0
2015-Mar-28 08:00N 30°35' W 025°03'1 1.2 1030.3
2015-Mar-28 07:00N 30°35' W 025°01'0 0.1 1030.0
2015-Mar-28 06:00N 30°35' W 025°01'2 0.9 1029.7
2015-Mar-28 04:00N 30°36' W 024°59'0 0.0 1029.7
2015-Mar-28 03:00N 30°36' W 024°59'1 0.7 1030.6
2015-Mar-28 02:00N 30°36' W 024°58'2 0.9 1030.9
2015-Mar-28 00:00N 30°36' W 024°56'1 0.3 1031.4
2015-Mar-27 22:00N 30°36' W 024°56'0 0.2 1030.5
2015-Mar-27 21:00N 30°36' W 024°56'2 0.8 1029.6
2015-Mar-27 19:00N 30°37' W 024°54'1 0.5 1028.6
2015-Mar-27 17:00N 30°36' W 024°53'1 1.2 1028.2
2015-Mar-27 16:00N 30°37' W 024°52'1 0.6 1028.4
2015-Mar-27 14:00N 30°37' W 024°50'1 1.2 1029.3
2015-Mar-27 13:00N 30°38' W 024°50'1 1.4 1029.8
2015-Mar-27 12:00N 30°38' W 024°48'1 0.9 1030.0
2015-Mar-27 11:00N 30°39' W 024°48'0 0.0 1030.0
2015-Mar-27 10:00N 30°39' W 024°48'3 1.0 1029.9
2015-Mar-27 07:00N 30°41' W 024°45'0 0.5 1028.6
2015-Mar-27 06:00N 30°42' W 024°45'3 1.7 1028.2
2015-Mar-27 04:00N 30°45' W 024°43'0 0.1 1028.3
2015-Mar-27 03:00N 30°45' W 024°43'5 1.0 1028.8
2015-Mar-26 22:00N 30°50' W 024°41'11 0.8 1029.3
2015-Mar-26 09:00N 30°59' W 024°35'0 0.2 1028.8
2015-Mar-26 08:00N 30°59' W 024°35'2 0.7 1028.3
2015-Mar-26 05:00N 31°00' W 024°33'1 1.0 1027.3
2015-Mar-26 04:00N 31°01' W 024°33'3 0.8 1027.8
2015-Mar-26 00:00N 31°04' W 024°31'0 0.4 1028.2
2015-Mar-25 23:00N 31°04' W 024°31'2 0.7 1028.3
2015-Mar-25 20:00N 31°05' W 024°30'1 1.2 1027.0
2015-Mar-25 19:00N 31°04' W 024°29'3 0.9 1026.9
2015-Mar-25 16:00N 31°07' W 024°29'0 0.4 1027.0
2015-Mar-25 15:00N 31°07' W 024°28'2 0.5 1027.6
2015-Mar-25 11:00N 31°09' W 024°27'1 1.1 1028.6
2015-Mar-25 10:00N 31°09' W 024°26'1 0.4 1028.2
2015-Mar-25 08:00N 31°10' W 024°25'0 0.0 1027.2
2015-Mar-25 07:00N 31°10' W 024°25'1 0.8 1026.4
2015-Mar-25 06:00N 31°10' W 024°24'1 0.9 1026.0
2015-Mar-25 05:00N 31°11' W 024°24'0 0.5 1026.1
2015-Mar-25 04:00N 31°11' W 024°23'1 1.1 1026.3
2015-Mar-25 03:00N 31°12' W 024°22'3 0.5 1026.7
2015-Mar-24 21:00N 31°13' W 024°19'2 0.6 1027.4
2015-Mar-24 18:00N 31°14' W 024°18'2 0.7 1026.8
2015-Mar-24 15:00N 31°15' W 024°16'0 0.2 1026.9
2015-Mar-24 14:00N 31°15' W 024°15'1 0.3 1027.3
2015-Mar-24 11:00N 31°15' W 024°14'3 0.8 1028.0
2015-Mar-24 07:00N 31°16' W 024°11'1 0.3 1026.1
2015-Mar-24 04:00N 31°17' W 024°10'1 0.3 1025.7
2015-Mar-23 23:00N 31°17' W 024°09'1 0.1 1027.7
2015-Mar-23 14:00N 31°18' W 024°08'1 0.2 1025.9
2015-Mar-23 10:00N 31°18' W 024°07'1 0.3 1025.5
2015-Mar-23 06:00N 31°19' W 024°06'1 1.1 1022.8
2015-Mar-23 05:00N 31°20' W 024°07'0 0.0 1022.4
2015-Mar-23 04:00N 31°20' W 024°07'1 0.5 1022.2
2015-Mar-23 01:00N 31°21' W 024°05'1 0.2 1022.3
2015-Mar-22 22:00N 31°21' W 024°05'2 1.0 1022.4
2015-Mar-22 20:00N 31°22' W 024°03'0 0.0 1021.0
2015-Mar-22 19:00N 31°22' W 024°03'4 0.6 1020.4
2015-Mar-22 12:00N 31°26' W 024°01'1 0.8 1021.6
2015-Mar-22 11:00N 31°27' W 024°02'2 0.5 1021.4
2015-Mar-22 07:00N 31°29' W 024°01'1 1.5 1020.0
2015-Mar-22 06:00N 31°30' W 023°60'3 1.6 1019.8
2015-Mar-22 04:00N 31°33' W 023°59'1 0.1 1020.0
2015-Mar-21 22:00N 31°33' W 023°60'1 0.8 1021.2
2015-Mar-21 21:00N 31°34' W 023°59'2 0.5 1021.0
2015-Mar-21 17:00N 31°36' W 023°58'1 1.1 1020.3
2015-Mar-21 16:00N 31°37' W 023°58'1 0.6 1020.7
2015-Mar-21 14:00N 31°38' W 023°58'0 0.4 1021.5
2015-Mar-21 13:00N 31°38' W 023°58'3 0.5 1021.9
2015-Mar-21 08:00N 31°41' W 023°59'3 0.5 1021.3
2015-Mar-21 03:00N 31°43' W 023°58'0 0.1 1020.9
2015-Mar-21 00:00N 31°43' W 023°59'1 0.5 1022.0
2015-Mar-20 23:00N 31°44' W 023°59'0 0.1 1022.2
2015-Mar-20 18:00N 31°44' W 023°59'1 0.1 1020.8
2015-Mar-20 13:00N 31°45' W 023°59'1 0.3 1022.0
2015-Mar-20 11:00N 31°45' W 023°59'0 0.0 1022.6
2015-Mar-20 10:00N 31°45' W 023°59'1 0.9 1022.5
2015-Mar-20 09:00N 31°45' W 024°00'2 0.2 1022.0
2015-Mar-19 20:00N 31°47' W 024°01'1 0.3 1024.2
2015-Mar-19 16:00N 31°48' W 024°02'1 0.7 1024.5
2015-Mar-19 15:00N 31°48' W 024°03'0 0.2 1025.1
2015-Mar-19 13:00N 31°49' W 024°03'1 0.2 1026.2
2015-Mar-19 06:00N 31°50' W 024°03'   1025.8
Track history (hours):
 
Tides and Currents Weather Stations Pressure Air Temp Water Temp Dewpoint Dewpoint Depression Visibility Wind Speed Wind Dir Waves Ship Positions

Drifting buoy 41560

Last reported at 2015-Mar-29 05:00 UTC. Time now 2015-Mar-29 06:14 UTC.
Position N 30°36' W 025°13'.

Barometer 1028.6 mb

Date/timePositionNaut miles runAvg speedWind from/ knotsBaromVisibWave heightAir tempDewpointWater temp
2015-Mar-29 05:00N 30°36' W 025°13'1 1.5 1028.6
2015-Mar-29 04:00N 30°35' W 025°12'1 0.6 1029.3
2015-Mar-29 02:00N 30°37' W 025°12'1 0.3 1030.8
2015-Mar-28 23:00N 30°37' W 025°11'0 0.3 1031.3
2015-Mar-28 22:00N 30°37' W 025°11'1 0.4 1031.3
2015-Mar-28 19:00N 30°36' W 025°10'0 0.2 1030.3
2015-Mar-28 17:00N 30°36' W 025°10'1 1.3 1029.8
2015-Mar-28 16:00N 30°36' W 025°08'0 0.2 1029.8
2015-Mar-28 14:00N 30°36' W 025°07'1 0.9 1030.7
2015-Mar-28 13:00N 30°36' W 025°06'1 1.0 1031.0
2015-Mar-28 12:00N 30°35' W 025°05'0 0.2 1031.3
2015-Mar-28 10:00N 30°36' W 025°05'2 1.2 1031.0
2015-Mar-28 08:00N 30°35' W 025°03'1 1.2 1030.3
2015-Mar-28 07:00N 30°35' W 025°01'0 0.1 1030.0
2015-Mar-28 06:00N 30°35' W 025°01'2 0.9 1029.7
2015-Mar-28 04:00N 30°36' W 024°59'0 0.0 1029.7
2015-Mar-28 03:00N 30°36' W 024°59'1 0.7 1030.6
2015-Mar-28 02:00N 30°36' W 024°58'2 0.9 1030.9
2015-Mar-28 00:00N 30°36' W 024°56'1 0.3 1031.4
2015-Mar-27 22:00N 30°36' W 024°56'0 0.2 1030.5
2015-Mar-27 21:00N 30°36' W 024°56'2 0.8 1029.6
2015-Mar-27 19:00N 30°37' W 024°54'1 0.5 1028.6
2015-Mar-27 17:00N 30°36' W 024°53'1 1.2 1028.2
2015-Mar-27 16:00N 30°37' W 024°52'1 0.6 1028.4
2015-Mar-27 14:00N 30°37' W 024°50'1 1.2 1029.3
2015-Mar-27 13:00N 30°38' W 024°50'1 1.4 1029.8
2015-Mar-27 12:00N 30°38' W 024°48'1 0.9 1030.0
2015-Mar-27 11:00N 30°39' W 024°48'0 0.0 1030.0
2015-Mar-27 10:00N 30°39' W 024°48'3 1.0 1029.9
2015-Mar-27 07:00N 30°41' W 024°45'0 0.5 1028.6
2015-Mar-27 06:00N 30°42' W 024°45'3 1.7 1028.2
2015-Mar-27 04:00N 30°45' W 024°43'0 0.1 1028.3
2015-Mar-27 03:00N 30°45' W 024°43'5 1.0 1028.8
2015-Mar-26 22:00N 30°50' W 024°41'11 0.8 1029.3
2015-Mar-26 09:00N 30°59' W 024°35'0 0.2 1028.8
2015-Mar-26 08:00N 30°59' W 024°35'2 0.7 1028.3
2015-Mar-26 05:00N 31°00' W 024°33'1 1.0 1027.3
2015-Mar-26 04:00N 31°01' W 024°33'3 0.8 1027.8
2015-Mar-26 00:00N 31°04' W 024°31'0 0.4 1028.2
2015-Mar-25 23:00N 31°04' W 024°31'2 0.7 1028.3
2015-Mar-25 20:00N 31°05' W 024°30'1 1.2 1027.0
2015-Mar-25 19:00N 31°04' W 024°29'3 0.9 1026.9
2015-Mar-25 16:00N 31°07' W 024°29'0 0.4 1027.0
2015-Mar-25 15:00N 31°07' W 024°28'2 0.5 1027.6
2015-Mar-25 11:00N 31°09' W 024°27'1 1.1 1028.6
2015-Mar-25 10:00N 31°09' W 024°26'1 0.4 1028.2
2015-Mar-25 08:00N 31°10' W 024°25'0 0.0 1027.2
2015-Mar-25 07:00N 31°10' W 024°25'1 0.8 1026.4
2015-Mar-25 06:00N 31°10' W 024°24'1 0.9 1026.0
2015-Mar-25 05:00N 31°11' W 024°24'0 0.5 1026.1
2015-Mar-25 04:00N 31°11' W 024°23'1 1.1 1026.3
2015-Mar-25 03:00N 31°12' W 024°22'3 0.5 1026.7
2015-Mar-24 21:00N 31°13' W 024°19'2 0.6 1027.4
2015-Mar-24 18:00N 31°14' W 024°18'2 0.7 1026.8
2015-Mar-24 15:00N 31°15' W 024°16'0 0.2 1026.9
2015-Mar-24 14:00N 31°15' W 024°15'1 0.3 1027.3
2015-Mar-24 11:00N 31°15' W 024°14'3 0.8 1028.0
2015-Mar-24 07:00N 31°16' W 024°11'1 0.3 1026.1
2015-Mar-24 04:00N 31°17' W 024°10'1 0.3 1025.7
2015-Mar-23 23:00N 31°17' W 024°09'1 0.1 1027.7
2015-Mar-23 14:00N 31°18' W 024°08'1 0.2 1025.9
2015-Mar-23 10:00N 31°18' W 024°07'1 0.3 1025.5
2015-Mar-23 06:00N 31°19' W 024°06'1 1.1 1022.8
2015-Mar-23 05:00N 31°20' W 024°07'0 0.0 1022.4
2015-Mar-23 04:00N 31°20' W 024°07'1 0.5 1022.2
2015-Mar-23 01:00N 31°21' W 024°05'1 0.2 1022.3
2015-Mar-22 22:00N 31°21' W 024°05'2 1.0 1022.4
2015-Mar-22 20:00N 31°22' W 024°03'0 0.0 1021.0
2015-Mar-22 19:00N 31°22' W 024°03'4 0.6 1020.4
2015-Mar-22 12:00N 31°26' W 024°01'1 0.8 1021.6
2015-Mar-22 11:00N 31°27' W 024°02'2 0.5 1021.4
2015-Mar-22 07:00N 31°29' W 024°01'1 1.5 1020.0
2015-Mar-22 06:00N 31°30' W 023°60'3 1.6 1019.8
2015-Mar-22 04:00N 31°33' W 023°59'1 0.1 1020.0
2015-Mar-21 22:00N 31°33' W 023°60'1 0.8 1021.2
2015-Mar-21 21:00N 31°34' W 023°59'2 0.5 1021.0
2015-Mar-21 17:00N 31°36' W 023°58'1 1.1 1020.3
2015-Mar-21 16:00N 31°37' W 023°58'1 0.6 1020.7
2015-Mar-21 14:00N 31°38' W 023°58'0 0.4 1021.5
2015-Mar-21 13:00N 31°38' W 023°58'3 0.5 1021.9
2015-Mar-21 08:00N 31°41' W 023°59'3 0.5 1021.3
2015-Mar-21 03:00N 31°43' W 023°58'0 0.1 1020.9
2015-Mar-21 00:00N 31°43' W 023°59'1 0.5 1022.0
2015-Mar-20 23:00N 31°44' W 023°59'0 0.1 1022.2
2015-Mar-20 18:00N 31°44' W 023°59'1 0.1 1020.8
2015-Mar-20 13:00N 31°45' W 023°59'1 0.3 1022.0
2015-Mar-20 11:00N 31°45' W 023°59'0 0.0 1022.6
2015-Mar-20 10:00N 31°45' W 023°59'1 0.9 1022.5
2015-Mar-20 09:00N 31°45' W 024°00'2 0.2 1022.0
2015-Mar-19 20:00N 31°47' W 024°01'1 0.3 1024.2
2015-Mar-19 16:00N 31°48' W 024°02'1 0.7 1024.5
2015-Mar-19 15:00N 31°48' W 024°03'0 0.2 1025.1
2015-Mar-19 13:00N 31°49' W 024°03'1 0.2 1026.2
2015-Mar-19 06:00N 31°50' W 024°03'   1025.8

Dump ship's entire track history